Time;durP1;ratioP1;P1;durP2;ratioP2;P2;SDS_P1;SDS_P2;PMS_P1;PMS_P2;Temp;Humidity;BMP_temperature;BMP_pressure;BME280_temperature;BME280_humidity;BME280_pressure;Samples;Min_cycle;Max_cycle;Signal;HPM_P1;HPM_P2
2021/03/07 00:00:14;;;;;;;;;34.00;34.00;;;;;;;;5012580;28;8873;-79
2021/03/07 00:02:42;;;;;;;;;42.00;42.00;;;;;;;;5024068;28;8869;-74
2021/03/07 00:05:11;;;;;;;;;44.00;40.33;;;;;;;;5024838;28;8849;-80
2021/03/07 00:07:38;;;;;;;;;43.00;43.00;;;;;;;;5025077;28;8880;-77
2021/03/07 00:10:07;;;;;;;;;37.67;35.67;;;;;;;;5021822;28;8898;-77
2021/03/07 00:12:34;;;;;;;;;46.67;43.00;;;;;;;;5024764;28;8860;-74
2021/03/07 00:15:01;;;;;;;;;38.67;36.67;;;;;;;;5006255;28;8857;-75
2021/03/07 00:17:29;;;;;;;;;45.67;41.33;;;;;;;;5025047;28;8967;-78
2021/03/07 00:19:56;;;;;;;;;38.33;38.33;;;;;;;;5021339;28;8864;-76
2021/03/07 00:22:26;;;;;;;;;36.33;36.33;;;;;;;;5025226;28;8878;-77
2021/03/07 00:24:53;;;;;;;;;42.00;38.67;;;;;;;;5024780;28;8857;-79
2021/03/07 00:27:20;;;;;;;;;39.33;37.67;;;;;;;;5018073;28;8860;-79
2021/03/07 00:29:47;;;;;;;;;36.67;33.67;;;;;;;;5024804;28;8911;-74
2021/03/07 00:32:14;;;;;;;;;31.00;30.67;;;;;;;;5021585;28;9599;-79
2021/03/07 00:34:42;;;;;;;;;41.67;38.67;;;;;;;;5020444;28;8874;-80
2021/03/07 00:37:10;;;;;;;;;34.67;33.33;;;;;;;;5022595;28;8910;-78
2021/03/07 00:39:36;;;;;;;;;38.67;35.67;;;;;;;;4999584;28;8868;-79
2021/03/07 00:42:04;;;;;;;;;42.33;39.00;;;;;;;;5023314;28;8876;-75
2021/03/07 00:44:31;;;;;;;;;37.00;32.67;;;;;;;;5029925;28;8992;-78
2021/03/07 00:46:58;;;;;;;;;36.00;36.00;;;;;;;;5016913;28;8887;-73
2021/03/07 00:49:28;;;;;;;;;32.00;32.00;;;;;;;;5016615;28;8884;-78
2021/03/07 00:51:56;;;;;;;;;45.67;42.67;;;;;;;;5022490;28;8864;-78
2021/03/07 00:54:23;;;;;;;;;38.33;37.67;;;;;;;;5021562;28;8927;-74
2021/03/07 00:56:50;;;;;;;;;39.33;36.33;;;;;;;;5023399;28;8969;-79
2021/03/07 00:59:17;;;;;;;;;33.67;33.67;;;;;;;;5020220;28;8938;-78
2021/03/07 01:01:44;;;;;;;;;31.00;31.00;;;;;;;;5021597;28;8823;-77
2021/03/07 01:04:11;;;;;;;;;36.00;36.00;;;;;;;;5023394;28;8895;-78
2021/03/07 01:06:38;;;;;;;;;30.67;30.67;;;;;;;;5019806;28;8864;-78
2021/03/07 01:09:06;;;;;;;;;31.33;31.33;;;;;;;;5025354;28;8892;-73
2021/03/07 01:11:34;;;;;;;;;27.67;27.67;;;;;;;;5024863;28;8887;-75
2021/03/07 01:14:01;;;;;;;;;23.33;23.33;;;;;;;;5026780;28;9015;-72
2021/03/07 01:16:28;;;;;;;;;33.00;33.00;;;;;;;;5026029;28;8868;-79
2021/03/07 01:18:55;;;;;;;;;24.00;24.00;;;;;;;;5009059;28;9013;-77
2021/03/07 01:21:21;;;;;;;;;27.33;27.33;;;;;;;;5022461;28;9708;-74
2021/03/07 01:23:48;;;;;;;;;31.00;31.00;;;;;;;;5022854;28;8894;-76
2021/03/07 01:26:17;;;;;;;;;29.00;29.00;;;;;;;;5009222;28;8889;-74
2021/03/07 01:28:43;;;;;;;;;31.67;31.33;;;;;;;;5024681;28;9009;-78
2021/03/07 01:31:10;;;;;;;;;29.33;29.33;;;;;;;;5025155;28;8809;-74
2021/03/07 01:33:37;;;;;;;;;28.67;27.00;;;;;;;;5026794;28;8868;-75
2021/03/07 01:36:04;;;;;;;;;21.67;21.67;;;;;;;;5026716;28;8920;-77
2021/03/07 01:38:31;;;;;;;;;28.33;26.67;;;;;;;;5025768;28;8873;-76
2021/03/07 01:40:59;;;;;;;;;30.67;29.33;;;;;;;;5024558;28;8890;-78
2021/03/07 01:43:28;;;;;;;;;21.00;21.00;;;;;;;;5024341;28;8851;-77
2021/03/07 01:45:55;;;;;;;;;34.00;34.00;;;;;;;;5025651;28;8856;-77
2021/03/07 01:48:23;;;;;;;;;24.00;22.67;;;;;;;;5008750;28;9688;-78
2021/03/07 01:50:51;;;;;;;;;28.00;28.00;;;;;;;;5021962;28;8864;-74
2021/03/07 01:53:19;;;;;;;;;20.33;20.33;;;;;;;;5026893;28;8930;-75
2021/03/07 01:55:47;;;;;;;;;24.67;23.67;;;;;;;;5026069;28;8845;-78
2021/03/07 01:58:17;;;;;;;;;27.67;27.67;;;;;;;;5026415;28;8877;-79
2021/03/07 02:00:46;;;;;;;;;22.00;22.00;;;;;;;;5023895;28;8781;-77
2021/03/07 02:03:13;;;;;;;;;27.67;27.67;;;;;;;;5024928;28;8915;-78
2021/03/07 02:05:40;;;;;;;;;25.00;25.00;;;;;;;;5026408;28;8848;-76
2021/03/07 02:08:08;;;;;;;;;30.33;30.33;;;;;;;;5024800;28;8872;-75
2021/03/07 02:10:38;;;;;;;;;31.33;29.67;;;;;;;;5024036;28;8861;-74
2021/03/07 02:13:10;;;;;;;;;19.25;19.25;;;;;;;;5025485;28;8906;-76
2021/03/07 02:15:39;;;;;;;;;29.00;29.00;;;;;;;;5024785;28;8860;-76
2021/03/07 02:18:08;;;;;;;;;33.00;33.00;;;;;;;;5026219;28;8861;-74
2021/03/07 02:20:37;;;;;;;;;28.50;28.50;;;;;;;;5023910;28;8887;-75
2021/03/07 02:23:07;;;;;;;;;29.75;28.50;;;;;;;;5021025;28;8879;-75
2021/03/07 02:25:36;;;;;;;;;34.50;33.25;;;;;;;;5016736;28;8891;-77
2021/03/07 02:28:06;;;;;;;;;26.33;26.33;;;;;;;;5018211;28;8870;-76
2021/03/07 02:30:33;;;;;;;;;31.00;31.00;;;;;;;;5015276;28;8812;-74
2021/03/07 02:33:10;;;;;;;;;35.00;35.00;;;;;;;;5019876;28;8868;-75
2021/03/07 02:35:39;;;;;;;;;35.25;35.25;;;;;;;;5019229;28;8852;-78
2021/03/07 02:38:07;;;;;;;;;23.67;23.67;;;;;;;;5015844;28;8865;-78
2021/03/07 02:40:36;;;;;;;;;25.50;25.50;;;;;;;;5024627;28;8856;-75
2021/03/07 02:43:04;;;;;;;;;25.25;25.25;;;;;;;;5023560;28;8879;-78
2021/03/07 02:45:32;;;;;;;;;31.50;30.25;;;;;;;;5025184;28;8898;-77
2021/03/07 02:48:00;;;;;;;;;28.25;28.25;;;;;;;;5025159;28;8868;-79
2021/03/07 02:50:29;;;;;;;;;28.50;27.25;;;;;;;;5018923;28;8884;-78
2021/03/07 02:52:58;;;;;;;;;30.00;30.00;;;;;;;;5007408;28;8860;-73
2021/03/07 02:55:28;;;;;;;;;25.00;25.00;;;;;;;;5023086;28;8872;-73
2021/03/07 02:57:56;;;;;;;;;39.00;37.00;;;;;;;;5021972;28;8861;-75
2021/03/07 03:00:23;;;;;;;;;32.25;32.25;;;;;;;;5023423;28;8925;-78
2021/03/07 03:02:51;;;;;;;;;31.25;28.75;;;;;;;;5024624;28;8876;-74
2021/03/07 03:05:18;;;;;;;;;24.25;24.25;;;;;;;;5016931;28;8972;-78
2021/03/07 03:07:45;;;;;;;;;26.75;26.75;;;;;;;;5017910;28;8918;-73
2021/03/07 03:10:13;;;;;;;;;30.50;30.50;;;;;;;;5020713;28;8878;-76
2021/03/07 03:12:42;;;;;;;;;31.25;29.50;;;;;;;;5023528;28;8870;-74
2021/03/07 03:15:12;;;;;;;;;35.00;31.00;;;;;;;;5021079;28;8906;-77
2021/03/07 03:17:40;;;;;;;;;30.50;28.00;;;;;;;;5021290;28;8876;-76
2021/03/07 03:20:11;;;;;;;;;37.50;34.50;;;;;;;;5023927;28;8860;-77
2021/03/07 03:22:38;;;;;;;;;27.75;27.75;;;;;;;;5020808;28;8863;-78
2021/03/07 03:25:07;;;;;;;;;41.50;36.25;;;;;;;;5017657;28;8888;-78
2021/03/07 03:27:34;;;;;;;;;33.75;33.75;;;;;;;;5018694;28;8861;-75
2021/03/07 03:30:05;;;;;;;;;43.25;37.75;;;;;;;;5021454;28;8868;-78
2021/03/07 03:32:34;;;;;;;;;36.00;36.00;;;;;;;;5026419;28;8848;-76
2021/03/07 03:35:01;;;;;;;;;30.50;30.50;;;;;;;;4998534;28;8852;-78
2021/03/07 03:37:27;;;;;;;;;40.00;38.25;;;;;;;;5011638;28;8939;-73
2021/03/07 03:39:55;;;;;;;;;32.00;31.25;;;;;;;;5022299;28;8849;-78
2021/03/07 03:42:23;;;;;;;;;36.25;31.25;;;;;;;;5026398;28;8860;-78
2021/03/07 03:44:50;;;;;;;;;33.50;33.50;;;;;;;;5032131;28;8869;-77
2021/03/07 03:47:17;;;;;;;;;34.00;34.00;;;;;;;;5023857;28;8872;-80
2021/03/07 03:49:53;;;;;;;;;41.50;36.75;;;;;;;;5020818;28;8861;-80
2021/03/07 03:52:21;;;;;;;;;31.67;31.67;;;;;;;;5014012;28;8945;-81
2021/03/07 03:54:52;;;;;;;;;25.00;25.00;;;;;;;;5018756;28;8872;-76
2021/03/07 03:57:21;;;;;;;;;35.75;35.25;;;;;;;;5023987;28;8881;-76
2021/03/07 03:59:50;;;;;;;;;37.25;35.50;;;;;;;;5027769;28;8962;-78
2021/03/07 04:02:17;;;;;;;;;33.25;32.50;;;;;;;;5022270;28;8895;-80
2021/03/07 04:04:47;;;;;;;;;25.00;25.00;;;;;;;;4987217;28;8916;-80
2021/03/07 04:07:14;;;;;;;;;34.75;34.75;;;;;;;;5014974;28;8921;-73
2021/03/07 04:09:41;;;;;;;;;24.25;24.25;;;;;;;;5018803;28;8864;-75
2021/03/07 04:12:09;;;;;;;;;29.25;29.25;;;;;;;;5023831;28;8872;-75
2021/03/07 04:14:37;;;;;;;;;28.00;28.00;;;;;;;;5023037;28;8942;-79
2021/03/07 04:17:04;;;;;;;;;25.50;25.50;;;;;;;;5023452;28;8876;-74
2021/03/07 04:19:32;;;;;;;;;29.00;29.00;;;;;;;;5019931;28;8861;-75
2021/03/07 04:22:00;;;;;;;;;33.50;33.25;;;;;;;;5023475;28;8884;-77
2021/03/07 04:24:27;;;;;;;;;33.75;33.75;;;;;;;;5023455;28;8859;-76
2021/03/07 04:26:56;;;;;;;;;28.75;28.75;;;;;;;;5022548;28;8864;-80
2021/03/07 04:29:25;;;;;;;;;34.00;33.00;;;;;;;;5023821;28;8887;-74
2021/03/07 04:31:52;;;;;;;;;36.00;33.75;;;;;;;;5022730;28;8832;-74
2021/03/07 04:34:20;;;;;;;;;32.00;32.00;;;;;;;;5003877;28;8864;-79
2021/03/07 04:36:46;;;;;;;;;35.25;34.00;;;;;;;;5024595;28;8883;-80
2021/03/07 04:39:14;;;;;;;;;32.25;32.25;;;;;;;;5018340;28;8883;-81
2021/03/07 04:41:41;;;;;;;;;40.75;40.75;;;;;;;;5023959;28;8852;-80
2021/03/07 04:44:09;;;;;;;;;33.25;33.25;;;;;;;;5026591;28;8865;-75
2021/03/07 04:46:35;;;;;;;;;32.25;31.25;;;;;;;;5022933;28;8990;-74
2021/03/07 04:49:03;;;;;;;;;37.75;36.50;;;;;;;;5025801;28;8855;-78
2021/03/07 04:51:30;;;;;;;;;29.50;27.25;;;;;;;;5026813;28;8876;-73
2021/03/07 04:53:57;;;;;;;;;34.75;34.50;;;;;;;;5026806;28;8841;-75
2021/03/07 04:56:27;;;;;;;;;40.00;38.00;;;;;;;;5024412;28;8994;-78
2021/03/07 04:58:54;;;;;;;;;30.25;30.25;;;;;;;;5025000;28;8857;-78
2021/03/07 05:01:21;;;;;;;;;32.75;32.75;;;;;;;;5018228;28;9579;-76
2021/03/07 05:03:48;;;;;;;;;35.25;34.00;;;;;;;;5026303;28;8860;-77
2021/03/07 05:06:15;;;;;;;;;31.50;31.50;;;;;;;;5026126;28;8844;-77
2021/03/07 05:08:41;;;;;;;;;34.00;33.00;;;;;;;;5025609;28;8882;-77
2021/03/07 05:11:08;;;;;;;;;45.50;41.25;;;;;;;;5021705;28;8861;-74
2021/03/07 05:13:35;;;;;;;;;39.00;39.00;;;;;;;;5026016;28;8979;-74
2021/03/07 05:16:03;;;;;;;;;42.75;42.50;;;;;;;;5026796;28;9539;-78
2021/03/07 05:18:30;;;;;;;;;32.00;30.50;;;;;;;;5025975;28;8861;-76
2021/03/07 05:20:56;;;;;;;;;44.25;35.25;;;;;;;;5018554;28;8936;-75
2021/03/07 05:23:23;;;;;;;;;37.00;35.75;;;;;;;;5025531;28;8857;-78
2021/03/07 05:25:51;;;;;;;;;33.75;32.00;;;;;;;;5025420;28;8880;-79
2021/03/07 05:28:17;;;;;;;;;38.50;38.50;;;;;;;;5025516;28;8891;-78
2021/03/07 05:30:45;;;;;;;;;39.25;38.75;;;;;;;;5024870;28;8813;-77
2021/03/07 05:33:15;;;;;;;;;32.50;32.50;;;;;;;;5031657;28;9003;-78
2021/03/07 05:35:42;;;;;;;;;50.00;45.50;;;;;;;;5026349;28;8935;-79
2021/03/07 05:38:09;;;;;;;;;46.25;41.75;;;;;;;;5006941;28;8891;-74
2021/03/07 05:40:37;;;;;;;;;46.50;43.00;;;;;;;;5024516;28;8880;-78
2021/03/07 05:43:05;;;;;;;;;38.50;37.00;;;;;;;;5008329;28;8856;-78
2021/03/07 05:45:32;;;;;;;;;44.50;42.50;;;;;;;;5026366;28;8861;-79
2021/03/07 05:48:00;;;;;;;;;39.00;37.50;;;;;;;;5026309;28;8886;-78
2021/03/07 05:50:28;;;;;;;;;41.75;40.25;;;;;;;;5026408;28;8853;-78
2021/03/07 05:52:57;;;;;;;;;43.00;42.50;;;;;;;;5026004;28;8873;-74
2021/03/07 05:55:24;;;;;;;;;43.50;41.25;;;;;;;;5029165;28;8958;-77
2021/03/07 05:57:52;;;;;;;;;47.25;41.00;;;;;;;;5026890;28;8845;-75
2021/03/07 06:00:20;;;;;;;;;49.25;45.00;;;;;;;;5027240;28;8864;-74
2021/03/07 06:02:47;;;;;;;;;35.75;35.50;;;;;;;;5008069;28;8873;-76
2021/03/07 06:05:16;;;;;;;;;41.75;39.25;;;;;;;;5025613;28;8930;-76
2021/03/07 06:07:44;;;;;;;;;37.25;37.25;;;;;;;;5018918;28;8852;-78
2021/03/07 06:10:13;;;;;;;;;48.25;45.75;;;;;;;;5015360;28;8882;-77
2021/03/07 06:12:40;;;;;;;;;55.50;48.75;;;;;;;;5024857;28;8950;-76
2021/03/07 06:15:09;;;;;;;;;45.00;43.50;;;;;;;;5023096;28;8882;-75
2021/03/07 06:17:40;;;;;;;;;42.50;42.25;;;;;;;;5026163;28;8868;-73
2021/03/07 06:20:09;;;;;;;;;49.50;47.00;;;;;;;;5018109;28;9594;-79
2021/03/07 06:22:38;;;;;;;;;39.75;39.75;;;;;;;;5021428;28;8880;-76
2021/03/07 06:25:07;;;;;;;;;41.50;41.50;;;;;;;;5018381;28;8866;-73
2021/03/07 06:27:34;;;;;;;;;39.25;37.50;;;;;;;;5006824;28;8907;-80
2021/03/07 06:30:05;;;;;;;;;53.00;43.75;;;;;;;;5025722;28;8887;-73
2021/03/07 06:32:33;;;;;;;;;50.00;47.00;;;;;;;;5023432;28;8851;-79
2021/03/07 06:35:01;;;;;;;;;39.50;37.50;;;;;;;;5025719;28;9756;-76
2021/03/07 06:37:28;;;;;;;;;39.75;38.50;;;;;;;;5022124;28;9049;-76
2021/03/07 06:39:56;;;;;;;;;54.00;46.50;;;;;;;;5022464;28;8845;-75
2021/03/07 06:42:23;;;;;;;;;52.00;48.50;;;;;;;;5024659;28;8862;-75
2021/03/07 06:44:59;;;;;;;;;41.75;38.25;;;;;;;;5024513;28;8872;-75
2021/03/07 06:47:26;;;;;;;;;45.50;45.00;;;;;;;;5023304;28;8872;-78
2021/03/07 06:50:09;;;;;;;;;45.75;45.00;;;;;;;;5023349;28;8888;-76
2021/03/07 06:52:49;;;;;;;;;45.50;44.00;;;;;;;;5023190;28;8860;-78
2021/03/07 06:55:18;;;;;;;;;46.50;43.50;;;;;;;;5024835;28;8942;-77
2021/03/07 06:57:45;;;;;;;;;44.00;42.75;;;;;;;;5018055;28;8896;-77
2021/03/07 07:00:13;;;;;;;;;49.50;47.75;;;;;;;;5012508;28;8897;-78
2021/03/07 07:02:40;;;;;;;;;44.25;44.00;;;;;;;;5022176;28;8864;-74
2021/03/07 07:05:08;;;;;;;;;59.25;51.00;;;;;;;;5023952;28;8864;-75
2021/03/07 07:07:47;;;;;;;;;57.75;49.00;;;;;;;;5023337;28;8857;-75
2021/03/07 07:10:15;;;;;;;;;45.50;45.00;;;;;;;;5021775;28;8922;-74
2021/03/07 07:12:43;;;;;;;;;57.50;51.75;;;;;;;;5007276;28;8894;-76
2021/03/07 07:15:12;;;;;;;;;50.50;48.00;;;;;;;;5016655;28;8857;-75
2021/03/07 07:17:39;;;;;;;;;66.75;54.25;;;;;;;;5021921;28;8918;-77
2021/03/07 07:20:08;;;;;;;;;44.75;44.00;;;;;;;;5023754;28;8880;-73
2021/03/07 07:22:35;;;;;;;;;50.00;46.00;;;;;;;;5025074;28;8880;-75
2021/03/07 07:25:03;;;;;;;;;69.75;56.75;;;;;;;;5023826;28;8869;-77
2021/03/07 07:27:31;;;;;;;;;65.00;54.75;;;;;;;;5026238;28;8864;-79
2021/03/07 07:29:59;;;;;;;;;61.50;54.00;;;;;;;;5002161;28;8841;-77
2021/03/07 07:32:32;;;;;;;;;72.50;62.00;;;;;;;;5014667;28;8836;-78
2021/03/07 07:35:03;;;;;;;;;67.50;56.00;;;;;;;;5024349;28;8864;-77
2021/03/07 07:37:32;;;;;;;;;72.50;59.00;;;;;;;;5015495;28;9037;-77
2021/03/07 07:40:00;;;;;;;;;77.00;65.00;;;;;;;;5004485;28;8838;-78
2021/03/07 07:42:29;;;;;;;;;95.00;75.75;;;;;;;;5034628;28;8840;-79
2021/03/07 07:44:59;;;;;;;;;96.25;77.50;;;;;;;;5023505;28;8887;-78
2021/03/07 07:47:36;;;;;;;;;97.00;76.25;;;;;;;;5022862;28;8891;-79
2021/03/07 07:50:04;;;;;;;;;72.00;60.00;;;;;;;;5012801;28;8865;-79
2021/03/07 07:52:49;;;;;;;;;78.50;66.00;;;;;;;;5012558;28;8867;-77
2021/03/07 07:55:16;;;;;;;;;91.75;71.00;;;;;;;;5018215;28;8974;-77
2021/03/07 07:57:48;;;;;;;;;90.00;73.50;;;;;;;;5023402;28;8908;-77
2021/03/07 08:00:19;;;;;;;;;77.25;62.00;;;;;;;;5003887;28;8856;-76
2021/03/07 08:02:51;;;;;;;;;76.00;64.00;;;;;;;;5019659;28;8909;-74
2021/03/07 08:05:45;;;;;;;;;65.25;55.75;;;;;;;;5001005;28;9635;-74
2021/03/07 08:08:15;;;;;;;;;67.00;57.50;;;;;;;;5020564;28;9031;-73
2021/03/07 08:10:47;;;;;;;;;68.75;58.00;;;;;;;;5014550;28;8888;-73
2021/03/07 08:13:36;;;;;;;;;66.50;57.50;;;;;;;;5021470;28;9623;-71
2021/03/07 08:16:05;;;;;;;;;67.00;57.50;;;;;;;;5020688;28;8894;-70
2021/03/07 08:18:50;;;;;;;;;74.75;63.00;;;;;;;;5025314;28;9618;-71
2021/03/07 08:21:18;;;;;;;;;92.50;74.25;;;;;;;;5026542;28;8961;-70
2021/03/07 08:23:59;;;;;;;;;69.00;57.25;;;;;;;;5026807;28;8951;-71
2021/03/07 08:26:28;;;;;;;;;81.50;67.00;;;;;;;;5026448;28;8957;-71
2021/03/07 08:28:55;;;;;;;;;69.00;58.50;;;;;;;;5020724;28;8934;-71
2021/03/07 08:31:37;;;;;;;;;62.00;54.00;;;;;;;;5026066;28;8781;-71
2021/03/07 08:34:27;;;;;;;;;56.33;51.33;;;;;;;;5026668;28;9059;-70
2021/03/07 08:37:00;;;;;;;;;53.67;49.67;;;;;;;;5007547;28;8900;-70
2021/03/07 08:39:28;;;;;;;;;54.00;49.00;;;;;;;;5025274;28;8864;-72
2021/03/07 08:42:05;;;;;;;;;51.33;46.67;;;;;;;;5024978;28;10224;-72
2021/03/07 08:44:33;;;;;;;;;52.00;49.00;;;;;;;;5024301;28;8853;-72
2021/03/07 08:47:02;;;;;;;;;45.67;44.33;;;;;;;;5025892;28;8869;-71
2021/03/07 08:49:31;;;;;;;;;49.33;46.67;;;;;;;;5020877;28;8893;-71
2021/03/07 08:52:01;;;;;;;;;56.33;50.33;;;;;;;;5021899;28;8884;-71
2021/03/07 08:54:31;;;;;;;;;58.67;51.67;;;;;;;;5021887;28;9640;-72
2021/03/07 08:56:59;;;;;;;;;48.33;43.00;;;;;;;;5023469;28;8868;-71
2021/03/07 08:59:27;;;;;;;;;43.67;43.67;;;;;;;;5019503;28;8871;-71
2021/03/07 09:01:55;;;;;;;;;54.67;50.00;;;;;;;;5024686;28;8805;-68
2021/03/07 09:04:23;;;;;;;;;64.33;51.33;;;;;;;;5026297;28;9769;-72
2021/03/07 09:06:51;;;;;;;;;49.00;45.33;;;;;;;;5007025;28;8873;-72
2021/03/07 09:09:20;;;;;;;;;61.00;53.00;;;;;;;;5025908;28;8860;-73
2021/03/07 09:11:49;;;;;;;;;54.67;47.33;;;;;;;;5022155;28;8868;-70
2021/03/07 09:14:16;;;;;;;;;51.33;46.33;;;;;;;;5026673;28;8872;-71
2021/03/07 09:16:45;;;;;;;;;41.67;39.00;;;;;;;;5026468;28;8888;-71
2021/03/07 09:19:38;;;;;;;;;52.33;43.00;;;;;;;;5029984;28;8864;-71
2021/03/07 09:22:16;;;;;;;;;55.67;47.00;;;;;;;;5005625;28;8966;-70
2021/03/07 09:24:58;;;;;;;;;45.00;39.33;;;;;;;;5024171;28;8979;-72
2021/03/07 09:27:28;;;;;;;;;47.33;35.00;;;;;;;;5023913;28;8857;-70
2021/03/07 09:29:57;;;;;;;;;51.00;44.33;;;;;;;;5022512;28;8849;-71
2021/03/07 09:32:25;;;;;;;;;46.67;42.67;;;;;;;;5024140;28;8838;-71
2021/03/07 09:34:53;;;;;;;;;48.67;42.00;;;;;;;;5023868;28;8868;-71
2021/03/07 09:37:20;;;;;;;;;57.67;46.67;;;;;;;;5024345;28;11585;-71
2021/03/07 09:39:49;;;;;;;;;46.00;40.33;;;;;;;;5004713;28;8895;-70
2021/03/07 09:42:17;;;;;;;;;51.00;45.00;;;;;;;;5020006;28;11666;-71
2021/03/07 09:44:44;;;;;;;;;54.33;47.00;;;;;;;;5021758;28;11566;-71
2021/03/07 09:47:11;;;;;;;;;43.75;40.00;;;;;;;;5024705;28;11593;-71
2021/03/07 09:49:40;;;;;;;;;42.75;40.25;;;;;;;;5020161;28;11564;-71
2021/03/07 09:52:09;;;;;;;;;34.50;34.50;;;;;;;;5019459;28;11566;-71
2021/03/07 09:54:36;;;;;;;;;34.75;34.75;;;;;;;;5018701;28;11536;-69
2021/03/07 09:57:03;;;;;;;;;29.25;25.50;;;;;;;;5017993;28;11572;-71
2021/03/07 09:59:32;;;;;;;;;27.00;27.00;;;;;;;;5026571;28;11582;-70
2021/03/07 10:02:00;;;;;;;;;33.75;31.25;;;;;;;;5022962;28;11536;-70
2021/03/07 10:04:32;;;;;;;;;38.25;37.25;;;;;;;;5022050;28;11694;-70
2021/03/07 10:06:59;;;;;;;;;38.50;37.25;;;;;;;;5023810;28;11630;-70
2021/03/07 10:09:28;;;;;;;;;37.00;35.50;;;;;;;;5016837;28;11595;-70
2021/03/07 10:11:59;;;;;;;;;33.75;31.50;;;;;;;;5021832;28;11629;-71
2021/03/07 10:14:28;;;;;;;;;40.25;30.75;;;;;;;;5018083;28;12346;-70
2021/03/07 10:16:57;;;;;;;;;47.25;40.00;;;;;;;;5024716;28;11570;-70
2021/03/07 10:19:24;;;;;;;;;36.75;34.75;;;;;;;;5022616;28;12363;-70
2021/03/07 10:21:56;;;;;;;;;35.50;33.00;;;;;;;;5020645;28;11583;-70
2021/03/07 10:24:23;;;;;;;;;46.50;43.00;;;;;;;;5024087;28;11664;-71
2021/03/07 10:26:52;;;;;;;;;47.75;44.00;;;;;;;;5021295;28;11835;-71
2021/03/07 10:29:26;;;;;;;;;44.50;39.00;;;;;;;;5005775;28;11579;-71
2021/03/07 10:32:18;;;;;;;;;39.25;37.25;;;;;;;;5016179;28;11570;-71
2021/03/07 10:34:46;;;;;;;;;44.75;39.75;;;;;;;;5004523;28;11176;-70
2021/03/07 10:37:33;;;;;;;;;41.75;39.50;;;;;;;;5021783;28;11680;-74
2021/03/07 10:40:00;;;;;;;;;33.50;33.00;;;;;;;;5019484;28;11579;-70
2021/03/07 10:42:33;;;;;;;;;38.75;32.00;;;;;;;;5023949;28;11574;-71
2021/03/07 10:45:13;;;;;;;;;55.00;45.50;;;;;;;;5026273;28;11585;-69
2021/03/07 10:47:40;;;;;;;;;46.75;41.50;;;;;;;;5014686;28;11594;-70
2021/03/07 10:50:09;;;;;;;;;37.25;35.00;;;;;;;;5023793;28;11612;-69
2021/03/07 10:52:36;;;;;;;;;40.00;38.25;;;;;;;;5022247;28;11565;-72
2021/03/07 10:55:13;;;;;;;;;37.50;32.50;;;;;;;;5005653;28;11603;-70
2021/03/07 10:57:41;;;;;;;;;41.00;38.00;;;;;;;;5002645;28;11606;-71
2021/03/07 11:00:09;;;;;;;;;29.25;29.25;;;;;;;;5020859;28;11638;-71
2021/03/07 11:02:36;;;;;;;;;53.50;43.00;;;;;;;;5023496;28;11591;-71
2021/03/07 11:05:04;;;;;;;;;54.50;43.50;;;;;;;;5023992;28;12606;-71
2021/03/07 11:07:31;;;;;;;;;42.50;37.50;;;;;;;;5025349;28;11568;-71
2021/03/07 11:09:58;;;;;;;;;30.25;28.25;;;;;;;;5022267;28;11596;-71
2021/03/07 11:12:25;;;;;;;;;44.50;40.25;;;;;;;;5024023;28;11626;-70
2021/03/07 11:14:53;;;;;;;;;51.75;44.00;;;;;;;;5017059;28;11577;-70
2021/03/07 11:17:21;;;;;;;;;33.25;31.25;;;;;;;;5025249;28;11578;-70
2021/03/07 11:19:47;;;;;;;;;45.50;41.75;;;;;;;;5006532;28;11584;-70
2021/03/07 11:22:14;;;;;;;;;32.50;30.00;;;;;;;;5022315;28;11609;-70
2021/03/07 11:24:41;;;;;;;;;33.50;33.00;;;;;;;;5023862;28;11547;-70
2021/03/07 11:27:08;;;;;;;;;42.00;38.00;;;;;;;;5014312;28;11976;-70
2021/03/07 11:29:35;;;;;;;;;36.00;36.00;;;;;;;;5032502;28;11716;-70
2021/03/07 11:32:04;;;;;;;;;39.00;37.50;;;;;;;;5041412;28;11640;-71
2021/03/07 11:34:31;;;;;;;;;43.00;36.00;;;;;;;;5028733;28;11571;-71
2021/03/07 11:36:58;;;;;;;;;39.75;35.50;;;;;;;;5022193;28;11706;-71
2021/03/07 11:39:25;;;;;;;;;39.00;37.75;;;;;;;;5025048;28;11505;-70
2021/03/07 11:41:52;;;;;;;;;36.25;35.75;;;;;;;;5025103;28;11544;-70
2021/03/07 11:44:19;;;;;;;;;42.50;39.25;;;;;;;;5025607;28;12355;-70
2021/03/07 11:46:46;;;;;;;;;42.00;37.00;;;;;;;;5026763;28;11519;-70
2021/03/07 11:49:14;;;;;;;;;36.00;33.75;;;;;;;;5025228;28;11667;-70
2021/03/07 11:51:41;;;;;;;;;39.50;35.25;;;;;;;;5024873;28;11524;-70
2021/03/07 11:54:07;;;;;;;;;34.00;33.00;;;;;;;;5023764;28;11636;-70
2021/03/07 11:56:34;;;;;;;;;28.50;25.00;;;;;;;;5014794;28;11525;-70
2021/03/07 11:59:01;;;;;;;;;27.50;26.00;;;;;;;;5022779;28;11523;-70
2021/03/07 12:01:28;;;;;;;;;24.75;24.75;;;;;;;;5022411;28;11165;-72
2021/03/07 12:03:54;;;;;;;;;35.00;31.75;;;;;;;;5005973;28;11472;-71
2021/03/07 12:06:23;;;;;;;;;25.25;24.00;;;;;;;;5022260;28;11703;-71
2021/03/07 12:08:50;;;;;;;;;26.25;26.25;;;;;;;;5022998;28;11215;-71
2021/03/07 12:11:17;;;;;;;;;33.50;28.25;;;;;;;;5018696;28;11071;-71
2021/03/07 12:13:44;;;;;;;;;27.00;25.50;;;;;;;;5018662;28;11911;-71
2021/03/07 12:16:11;;;;;;;;;27.50;27.50;;;;;;;;5021590;28;11998;-71
2021/03/07 12:18:38;;;;;;;;;34.00;29.50;;;;;;;;5024227;28;11186;-71
2021/03/07 12:21:06;;;;;;;;;31.00;29.25;;;;;;;;5006514;28;11081;-71
2021/03/07 12:23:34;;;;;;;;;20.75;20.75;;;;;;;;5021395;28;11006;-71
2021/03/07 12:26:01;;;;;;;;;27.25;25.50;;;;;;;;5019324;28;10923;-70
2021/03/07 12:28:28;;;;;;;;;20.50;20.00;;;;;;;;5023209;28;11062;-71
2021/03/07 12:30:55;;;;;;;;;19.00;18.75;;;;;;;;5020477;28;10741;-71
2021/03/07 12:33:23;;;;;;;;;23.25;23.25;;;;;;;;5027020;28;10915;-71
2021/03/07 12:35:49;;;;;;;;;38.00;34.25;;;;;;;;5024026;28;11090;-71
2021/03/07 12:38:17;;;;;;;;;30.50;29.50;;;;;;;;5022575;28;11304;-70
2021/03/07 12:40:44;;;;;;;;;30.50;29.50;;;;;;;;5022435;28;11026;-71
2021/03/07 12:43:11;;;;;;;;;36.25;29.75;;;;;;;;5023501;28;11226;-70
2021/03/07 12:45:38;;;;;;;;;48.00;42.00;;;;;;;;5022885;28;11101;-70
2021/03/07 12:48:06;;;;;;;;;40.25;35.75;;;;;;;;5012595;28;11492;-70
2021/03/07 12:50:32;;;;;;;;;23.75;23.25;;;;;;;;5017883;28;11272;-70
2021/03/07 12:52:59;;;;;;;;;24.50;24.50;;;;;;;;5021650;28;10836;-69
2021/03/07 12:55:26;;;;;;;;;36.50;33.50;;;;;;;;5022776;28;10977;-70
2021/03/07 12:57:53;;;;;;;;;29.75;28.75;;;;;;;;5020849;28;11191;-72
2021/03/07 13:00:21;;;;;;;;;30.25;30.25;;;;;;;;5026263;28;10943;-71
2021/03/07 13:02:48;;;;;;;;;29.50;29.50;;;;;;;;5021689;28;11054;-71
2021/03/07 13:05:15;;;;;;;;;33.50;32.00;;;;;;;;5027531;28;11646;-70
2021/03/07 13:07:42;;;;;;;;;31.50;30.25;;;;;;;;5022877;28;10762;-71
2021/03/07 13:10:10;;;;;;;;;30.50;30.50;;;;;;;;5022005;28;11717;-71
2021/03/07 13:12:37;;;;;;;;;37.00;35.50;;;;;;;;5026027;28;10850;-70
2021/03/07 13:15:07;;;;;;;;;45.00;38.75;;;;;;;;5027152;28;10922;-70
2021/03/07 13:17:35;;;;;;;;;31.75;29.00;;;;;;;;5026964;28;11020;-70
2021/03/07 13:20:03;;;;;;;;;40.00;37.50;;;;;;;;5026357;28;10721;-70
2021/03/07 13:22:30;;;;;;;;;31.25;26.75;;;;;;;;5027172;28;10868;-70
2021/03/07 13:24:56;;;;;;;;;40.75;30.50;;;;;;;;5024304;28;10624;-70
2021/03/07 13:27:23;;;;;;;;;29.75;28.25;;;;;;;;5026958;28;10693;-70
2021/03/07 13:29:50;;;;;;;;;32.25;29.75;;;;;;;;5026257;28;10562;-70
2021/03/07 13:32:18;;;;;;;;;30.75;29.75;;;;;;;;5025992;28;10594;-70
2021/03/07 13:34:45;;;;;;;;;32.00;31.50;;;;;;;;5023929;28;10531;-71
2021/03/07 13:37:12;;;;;;;;;28.75;26.00;;;;;;;;5025293;28;10774;-71
2021/03/07 13:39:39;;;;;;;;;28.75;28.25;;;;;;;;5018426;28;10772;-71
2021/03/07 13:42:07;;;;;;;;;33.25;29.50;;;;;;;;5025233;28;10637;-71
2021/03/07 13:44:34;;;;;;;;;32.00;26.75;;;;;;;;5025304;28;11608;-71
2021/03/07 13:47:01;;;;;;;;;43.00;39.25;;;;;;;;5024868;28;10612;-71
2021/03/07 13:49:29;;;;;;;;;47.00;41.00;;;;;;;;5030795;28;11073;-71
2021/03/07 13:51:56;;;;;;;;;31.50;31.50;;;;;;;;5017551;28;10927;-71
2021/03/07 13:54:23;;;;;;;;;37.25;35.00;;;;;;;;5001574;28;10487;-71
2021/03/07 13:56:50;;;;;;;;;37.25;35.00;;;;;;;;5016585;28;10703;-71
2021/03/07 13:59:17;;;;;;;;;36.50;35.25;;;;;;;;5023150;28;10700;-71
2021/03/07 14:01:44;;;;;;;;;36.50;35.50;;;;;;;;5022443;28;10738;-71
2021/03/07 14:04:11;;;;;;;;;37.00;33.50;;;;;;;;5007386;28;10674;-71
2021/03/07 14:06:39;;;;;;;;;27.25;27.25;;;;;;;;5008282;28;10752;-69
2021/03/07 14:09:06;;;;;;;;;25.75;25.75;;;;;;;;5022711;28;10532;-70
2021/03/07 14:11:33;;;;;;;;;43.00;37.50;;;;;;;;5025202;28;10450;-72
2021/03/07 14:14:00;;;;;;;;;26.50;25.00;;;;;;;;5025813;28;10935;-70
2021/03/07 14:16:26;;;;;;;;;28.75;26.50;;;;;;;;5020185;28;10542;-70
2021/03/07 14:18:53;;;;;;;;;28.50;27.00;;;;;;;;5025649;28;10530;-70
2021/03/07 14:21:20;;;;;;;;;27.75;27.75;;;;;;;;5018777;28;10557;-70
2021/03/07 14:23:48;;;;;;;;;34.50;32.75;;;;;;;;5013527;28;10611;-70
2021/03/07 14:26:15;;;;;;;;;43.50;39.75;;;;;;;;5025327;28;11786;-70
2021/03/07 14:28:42;;;;;;;;;32.75;32.00;;;;;;;;5025060;28;10853;-70
2021/03/07 14:31:09;;;;;;;;;28.50;28.50;;;;;;;;5020234;28;10501;-71
2021/03/07 14:33:36;;;;;;;;;44.75;40.75;;;;;;;;5037616;28;10785;-71